Time;durP1;ratioP1;P1;durP2;ratioP2;P2;SDS_P1;SDS_P2;PMS_P1;PMS_P2;Temp;Humidity;BMP_temperature;BMP_pressure;BME280_temperature;BME280_humidity;BME280_pressure;Samples;Min_cycle;Max_cycle;Signal;HPM_P1;HPM_P2
2023/09/08 00:01:13;;;;;;;11.77;7.23;;;17.50;99.90;;;;;;4665197;30;20295;-79
2023/09/08 00:03:44;;;;;;;19.07;7.67;;;17.50;99.90;;;;;;4664767;30;20213;-77
2023/09/08 00:06:11;;;;;;;13.33;7.43;;;17.50;99.90;;;;;;4665752;30;20221;-77
2023/09/08 00:08:39;;;;;;;11.30;6.50;;;17.40;99.90;;;;;;4667946;30;20640;-77
2023/09/08 00:11:07;;;;;;;9.27;6.77;;;17.40;99.90;;;;;;4669620;30;20205;-78
2023/09/08 00:13:35;;;;;;;10.07;6.77;;;17.40;99.90;;;;;;4667060;30;20670;-77
2023/09/08 00:16:07;;;;;;;11.60;6.97;;;17.40;99.90;;;;;;4664762;30;20651;-79
2023/09/08 00:18:36;;;;;;;15.77;7.60;;;17.40;99.90;;;;;;4664595;30;20327;-78
2023/09/08 00:21:05;;;;;;;11.13;7.13;;;17.40;99.90;;;;;;4663605;30;20233;-78
2023/09/08 00:23:37;;;;;;;12.70;6.83;;;17.40;99.90;;;;;;4664449;30;20313;-78
2023/09/08 00:26:06;;;;;;;11.63;7.20;;;17.30;99.90;;;;;;4665050;30;20205;-78
2023/09/08 00:28:34;;;;;;;13.67;7.50;;;17.30;99.90;;;;;;4664912;30;20201;-78
2023/09/08 00:31:02;;;;;;;12.00;7.10;;;17.30;99.90;;;;;;4664704;30;20205;-81
2023/09/08 00:33:31;;;;;;;14.63;7.57;;;17.30;99.90;;;;;;4664954;30;20291;-80
2023/09/08 00:35:59;;;;;;;13.30;7.00;;;17.30;99.90;;;;;;4664994;30;20267;-81
2023/09/08 00:38:27;;;;;;;10.67;6.93;;;17.30;99.90;;;;;;4663981;30;20197;-78
2023/09/08 00:40:54;;;;;;;9.97;6.90;;;17.30;99.90;;;;;;4664134;30;20233;-78
2023/09/08 00:43:22;;;;;;;22.07;8.63;;;17.20;99.90;;;;;;4665030;30;20209;-78
2023/09/08 00:45:51;;;;;;;11.00;7.13;;;17.30;99.90;;;;;;4664430;30;20213;-78
2023/09/08 00:48:25;;;;;;;10.37;7.10;;;17.20;99.90;;;;;;4662585;30;20587;-78
2023/09/08 00:50:54;;;;;;;11.20;6.87;;;17.20;99.90;;;;;;4663945;30;20686;-78
2023/09/08 00:53:22;;;;;;;11.70;7.30;;;17.20;99.90;;;;;;4664648;30;20205;-78
2023/09/08 00:55:51;;;;;;;10.70;7.20;;;17.10;99.90;;;;;;4665107;30;20201;-78
2023/09/08 00:58:19;;;;;;;12.30;6.97;;;17.20;99.90;;;;;;4682822;30;20221;-78
2023/09/08 01:00:53;;;;;;;12.63;7.80;;;17.20;99.90;;;;;;4666286;30;20209;-78
2023/09/08 01:03:21;;;;;;;13.37;7.03;;;17.20;99.90;;;;;;4670215;30;20196;-78
2023/09/08 01:05:59;;;;;;;9.47;7.07;;;17.10;99.90;;;;;;4665920;30;20297;-78
2023/09/08 01:08:28;;;;;;;10.93;7.23;;;17.10;99.90;;;;;;4663721;30;20289;-78
2023/09/08 01:10:56;;;;;;;10.63;7.13;;;17.10;99.90;;;;;;4664597;30;20212;-77
2023/09/08 01:13:27;;;;;;;18.30;7.57;;;17.10;99.90;;;;;;4664749;30;20226;-77
2023/09/08 01:15:57;;;;;;;12.07;7.90;;;17.10;99.90;;;;;;4664489;30;20681;-78
2023/09/08 01:18:30;;;;;;;12.37;7.47;;;16.90;99.90;;;;;;4664542;30;20209;-79
2023/09/08 01:21:27;;;;;;;11.47;7.47;;;17.00;99.90;;;;;;4662991;30;20241;-79
2023/09/08 01:24:10;;;;;;;13.17;7.43;;;16.90;99.90;;;;;;4662951;30;20607;-78
2023/09/08 01:26:41;;;;;;;11.37;7.20;;;16.90;99.90;;;;;;4663516;30;20205;-77
2023/09/08 01:29:12;;;;;;;11.57;7.30;;;16.90;99.90;;;;;;4664960;30;20201;-78
2023/09/08 01:31:41;;;;;;;11.70;7.90;;;16.90;99.90;;;;;;4664041;30;20255;-78
2023/09/08 01:34:09;;;;;;;12.97;7.77;;;16.80;99.90;;;;;;4664475;30;20209;-78
2023/09/08 01:36:38;;;;;;;12.20;7.27;;;16.80;99.90;;;;;;4665216;30;20233;-81
2023/09/08 01:39:08;;;;;;;16.77;8.20;;;16.80;99.90;;;;;;4663938;30;20231;-79
2023/09/08 01:41:36;;;;;;;11.33;7.73;;;16.80;99.90;;;;;;4663007;30;20260;-80
2023/09/08 01:44:07;;;;;;;13.33;7.87;;;16.70;99.90;;;;;;4664048;30;20268;-80
2023/09/08 01:46:36;;;;;;;11.53;7.20;;;16.70;99.90;;;;;;4663151;30;20189;-79
2023/09/08 01:49:04;;;;;;;11.57;7.50;;;16.70;99.90;;;;;;4664317;30;20201;-78
2023/09/08 01:51:32;;;;;;;12.70;8.07;;;16.70;99.90;;;;;;4661704;30;20225;-78
2023/09/08 01:54:00;;;;;;;13.50;7.53;;;16.60;99.90;;;;;;4664107;30;20205;-79
2023/09/08 01:56:28;;;;;;;13.03;7.90;;;16.50;99.90;;;;;;4662798;30;20228;-78
2023/09/08 01:58:59;;;;;;;11.73;7.17;;;16.60;99.90;;;;;;4663464;30;20217;-78
2023/09/08 02:01:26;;;;;;;10.20;7.20;;;16.60;99.90;;;;;;4663929;30;20314;-78
2023/09/08 02:03:57;;;;;;;11.50;7.80;;;16.60;99.90;;;;;;4664298;30;20202;-78
2023/09/08 02:06:25;;;;;;;14.37;7.73;;;16.50;99.90;;;;;;4665493;30;20698;-79
2023/09/08 02:08:53;;;;;;;10.33;8.03;;;16.50;99.90;;;;;;4666823;30;20205;-79
2023/09/08 02:11:24;;;;;;;11.23;7.87;;;16.50;99.90;;;;;;4667384;30;20213;-80
2023/09/08 02:13:52;;;;;;;10.53;7.30;;;16.50;99.90;;;;;;4667463;30;20205;-80
2023/09/08 02:16:23;;;;;;;10.67;7.53;;;16.50;99.90;;;;;;4667850;30;20335;-79
2023/09/08 02:18:51;;;;;;;10.03;7.27;;;16.50;99.90;;;;;;4667693;30;20212;-77
2023/09/08 02:21:25;;;;;;;13.30;7.43;;;16.50;99.90;;;;;;4666663;30;20251;-79
2023/09/08 02:23:53;;;;;;;23.43;9.10;;;16.50;99.90;;;;;;4666267;30;20236;-78
2023/09/08 02:26:22;;;;;;;10.73;7.53;;;16.50;99.90;;;;;;4664999;30;20308;-77
2023/09/08 02:28:50;;;;;;;12.97;7.77;;;16.50;99.90;;;;;;4665194;30;20216;-78
2023/09/08 02:31:19;;;;;;;12.53;7.97;;;16.50;99.90;;;;;;4665537;30;20213;-80
2023/09/08 02:33:47;;;;;;;12.67;7.83;;;16.50;99.90;;;;;;4666541;30;20235;-78
2023/09/08 02:36:25;;;;;;;17.50;8.70;;;16.40;99.90;;;;;;4666768;30;20349;-78
2023/09/08 02:38:54;;;;;;;11.53;7.77;;;16.50;99.90;;;;;;4665948;30;20205;-78
2023/09/08 02:41:24;;;;;;;15.37;8.17;;;16.40;99.90;;;;;;4666811;30;20315;-78
2023/09/08 02:43:55;;;;;;;11.33;8.20;;;16.40;99.90;;;;;;4665874;30;20267;-77
2023/09/08 02:46:23;;;;;;;14.23;7.87;;;16.40;99.90;;;;;;4666310;30;20209;-77
2023/09/08 02:48:52;;;;;;;12.50;7.63;;;16.40;99.90;;;;;;4679795;30;20264;-79
2023/09/08 02:51:23;;;;;;;12.80;8.37;;;16.40;99.90;;;;;;4666880;30;20232;-79
2023/09/08 02:53:54;;;;;;;14.07;8.53;;;16.40;99.90;;;;;;4665935;30;20622;-81
2023/09/08 02:56:22;;;;;;;14.20;8.47;;;16.40;99.90;;;;;;4666919;30;20216;-78
2023/09/08 02:58:50;;;;;;;16.17;8.70;;;16.30;99.90;;;;;;4667027;30;20577;-79
2023/09/08 03:01:20;;;;;;;15.00;9.07;;;16.30;99.90;;;;;;4666505;30;20248;-79
2023/09/08 03:03:52;;;;;;;11.93;8.80;;;16.40;99.90;;;;;;4666867;30;20201;-78
2023/09/08 03:06:21;;;;;;;13.87;9.07;;;16.30;99.90;;;;;;4665475;30;20225;-78
2023/09/08 03:08:52;;;;;;;11.63;8.93;;;16.30;99.90;;;;;;4666198;30;20205;-78
2023/09/08 03:11:20;;;;;;;14.23;9.37;;;16.30;99.90;;;;;;4666609;30;20215;-78
2023/09/08 03:13:47;;;;;;;13.40;8.87;;;16.30;99.90;;;;;;4665758;30;20264;-78
2023/09/08 03:16:16;;;;;;;13.30;9.40;;;16.30;99.90;;;;;;4666692;30;20201;-78
2023/09/08 03:18:45;;;;;;;14.90;9.27;;;16.30;99.90;;;;;;4665031;30;20201;-78
2023/09/08 03:21:14;;;;;;;13.10;8.90;;;16.30;99.90;;;;;;4665279;30;20769;-77
2023/09/08 03:23:43;;;;;;;15.50;9.30;;;16.30;99.90;;;;;;4664417;30;20323;-79
2023/09/08 03:26:14;;;;;;;15.10;10.43;;;16.30;99.90;;;;;;4666475;30;20197;-77
2023/09/08 03:28:43;;;;;;;18.00;9.90;;;16.20;99.90;;;;;;4664170;30;20208;-77
2023/09/08 03:31:11;;;;;;;15.67;10.30;;;16.10;99.90;;;;;;4663829;30;20267;-80
2023/09/08 03:33:40;;;;;;;15.57;9.90;;;16.20;99.90;;;;;;4649916;30;20256;-79
2023/09/08 03:36:09;;;;;;;14.70;10.47;;;16.20;99.90;;;;;;4665876;30;20235;-79
2023/09/08 03:38:41;;;;;;;14.20;10.40;;;16.20;99.90;;;;;;4665432;30;20205;-79
2023/09/08 03:41:09;;;;;;;14.90;10.13;;;16.20;99.90;;;;;;4665579;30;20217;-77
2023/09/08 03:43:37;;;;;;;15.30;10.00;;;16.20;99.90;;;;;;4664744;30;20232;-78
2023/09/08 03:46:04;;;;;;;14.70;10.00;;;16.20;99.90;;;;;;4665824;30;20212;-78
2023/09/08 03:48:35;;;;;;;15.00;10.37;;;16.10;99.90;;;;;;4665331;30;20198;-77
2023/09/08 03:51:10;;;;;;;16.30;10.30;;;16.20;99.90;;;;;;4665557;30;20701;-77
2023/09/08 03:53:38;;;;;;;14.20;10.10;;;16.10;99.90;;;;;;4664964;30;20548;-78
2023/09/08 03:56:10;;;;;;;12.93;9.10;;;16.10;99.90;;;;;;4665631;30;20200;-78
2023/09/08 03:58:38;;;;;;;14.97;9.50;;;16.10;99.90;;;;;;4665635;30;20209;-76
2023/09/08 04:01:07;;;;;;;13.07;8.90;;;16.10;99.90;;;;;;4664824;30;20572;-77
2023/09/08 04:03:35;;;;;;;13.27;9.20;;;16.10;99.90;;;;;;4664995;30;20580;-79
2023/09/08 04:06:03;;;;;;;14.37;9.20;;;16.20;99.90;;;;;;4665027;30;20588;-78
2023/09/08 04:08:31;;;;;;;17.50;9.60;;;16.10;99.90;;;;;;4665226;30;20213;-77
2023/09/08 04:10:59;;;;;;;14.27;9.03;;;16.10;99.90;;;;;;4664615;30;20299;-78
2023/09/08 04:13:30;;;;;;;16.50;9.57;;;16.00;99.90;;;;;;4664968;30;20259;-79
2023/09/08 04:15:58;;;;;;;15.97;9.17;;;16.10;99.90;;;;;;4664260;30;20201;-79
2023/09/08 04:18:27;;;;;;;13.50;8.67;;;16.10;99.90;;;;;;4665426;30;20288;-79
2023/09/08 04:20:55;;;;;;;26.70;10.50;;;16.10;99.90;;;;;;4664685;30;20221;-80
2023/09/08 04:23:23;;;;;;;14.33;9.30;;;16.10;99.90;;;;;;4663962;30;20721;-78
2023/09/08 04:25:54;;;;;;;13.90;8.70;;;16.10;99.90;;;;;;4664382;30;20208;-77
2023/09/08 04:28:25;;;;;;;12.80;8.93;;;16.20;99.90;;;;;;4664481;30;20209;-78
2023/09/08 04:30:54;;;;;;;12.83;8.90;;;16.20;99.90;;;;;;4663956;30;20666;-77
2023/09/08 04:33:24;;;;;;;11.47;8.47;;;16.10;99.90;;;;;;4664581;30;20300;-77
2023/09/08 04:35:52;;;;;;;12.70;9.13;;;16.20;99.90;;;;;;4664473;30;20224;-80
2023/09/08 04:38:21;;;;;;;17.47;9.10;;;16.20;99.90;;;;;;4663444;30;20216;-80
2023/09/08 04:40:52;;;;;;;12.10;9.03;;;16.30;99.90;;;;;;4664135;30;20625;-79
2023/09/08 04:43:19;;;;;;;14.23;9.07;;;16.30;99.90;;;;;;4664993;30;20232;-80
2023/09/08 04:45:48;;;;;;;14.70;9.50;;;16.30;99.90;;;;;;4663367;30;20209;-80
2023/09/08 04:48:16;;;;;;;13.23;8.50;;;16.30;99.90;;;;;;4664049;30;20264;-78
2023/09/08 04:50:43;;;;;;;13.53;8.80;;;16.30;99.90;;;;;;4664192;30;20308;-78
2023/09/08 04:53:12;;;;;;;15.43;8.97;;;16.40;99.90;;;;;;4664607;30;20212;-78
2023/09/08 04:55:40;;;;;;;14.60;9.10;;;16.40;99.90;;;;;;4664765;30;20284;-77
2023/09/08 04:58:16;;;;;;;14.57;9.00;;;16.40;99.90;;;;;;4664342;30;20292;-80
2023/09/08 05:00:46;;;;;;;13.30;9.40;;;16.50;99.90;;;;;;4664602;30;20244;-78
2023/09/08 05:03:14;;;;;;;16.77;9.33;;;16.50;99.90;;;;;;4664533;30;20287;-80
2023/09/08 05:05:42;;;;;;;17.37;9.37;;;16.60;99.90;;;;;;4664055;30;20251;-80
2023/09/08 05:08:13;;;;;;;15.63;9.17;;;16.50;99.90;;;;;;4663825;30;20224;-79
2023/09/08 05:10:44;;;;;;;15.70;9.17;;;16.70;99.90;;;;;;4663373;30;20236;-79
2023/09/08 05:13:13;;;;;;;14.37;8.70;;;16.70;99.90;;;;;;4664041;30;20288;-80
2023/09/08 05:16:00;;;;;;;17.93;10.30;;;16.80;99.90;;;;;;4663498;30;20185;-79
2023/09/08 05:18:29;;;;;;;17.77;10.30;;;16.80;99.90;;;;;;4662924;30;20205;-80
2023/09/08 05:20:57;;;;;;;18.53;9.87;;;16.90;99.90;;;;;;4663011;30;20233;-77
2023/09/08 05:23:25;;;;;;;13.70;9.57;;;16.90;99.90;;;;;;4663198;30;20241;-77
2023/09/08 05:25:55;;;;;;;21.77;10.93;;;16.90;99.90;;;;;;4663551;30;20201;-77
2023/09/08 05:28:24;;;;;;;15.20;10.57;;;17.00;99.90;;;;;;4663894;30;20201;-79
2023/09/08 05:30:52;;;;;;;16.60;9.73;;;17.10;99.90;;;;;;4663639;30;20619;-80
2023/09/08 05:33:21;;;;;;;16.10;9.90;;;17.10;99.90;;;;;;4662930;30;20279;-79
2023/09/08 05:35:53;;;;;;;13.67;10.03;;;17.20;99.90;;;;;;4663703;30;20292;-80
2023/09/08 05:38:25;;;;;;;16.57;10.67;;;17.20;99.90;;;;;;4662656;30;20190;-77
2023/09/08 05:40:59;;;;;;;16.23;10.40;;;17.20;99.90;;;;;;4662575;30;20532;-78
2023/09/08 05:43:32;;;;;;;17.43;10.57;;;17.30;99.90;;;;;;4663990;30;20745;-78
2023/09/08 05:46:02;;;;;;;17.33;10.20;;;17.30;99.90;;;;;;4663917;30;20201;-78
2023/09/08 05:48:33;;;;;;;13.73;9.50;;;17.30;99.90;;;;;;4664200;30;20255;-77
2023/09/08 05:51:06;;;;;;;21.83;11.13;;;17.40;99.90;;;;;;4662616;30;20283;-78
2023/09/08 05:53:40;;;;;;;16.60;10.57;;;17.40;99.90;;;;;;4663891;30;20259;-79
2023/09/08 05:56:14;;;;;;;17.63;10.53;;;17.50;99.90;;;;;;4663954;30;20209;-78
2023/09/08 05:58:42;;;;;;;13.30;9.87;;;17.60;99.90;;;;;;4663419;30;20201;-78
2023/09/08 06:01:10;;;;;;;20.43;10.67;;;17.70;99.90;;;;;;4663319;30;20204;-78
2023/09/08 06:03:42;;;;;;;15.50;9.93;;;17.70;99.90;;;;;;4662599;30;20292;-78
2023/09/08 06:06:36;;;;;;;14.87;10.13;;;17.80;99.90;;;;;;4662404;30;20272;-80
2023/09/08 06:09:22;;;;;;;15.70;10.17;;;17.80;99.90;;;;;;4663936;30;20307;-79
2023/09/08 06:11:53;;;;;;;15.87;9.97;;;17.90;99.90;;;;;;4663927;30;20256;-79
2023/09/08 06:14:41;;;;;;;15.77;10.30;;;18.00;99.90;;;;;;4663244;30;20208;-80
2023/09/08 06:17:10;;;;;;;15.17;10.00;;;18.10;99.90;;;;;;4663418;30;20209;-79
2023/09/08 06:19:42;;;;;;;17.00;9.67;;;18.20;99.90;;;;;;4663058;30;20263;-79
2023/09/08 06:22:13;;;;;;;19.77;9.77;;;18.30;99.90;;;;;;4663567;30;20221;-80
2023/09/08 06:24:44;;;;;;;17.60;10.20;;;18.40;99.90;;;;;;4663168;30;20252;-79
2023/09/08 06:27:20;;;;;;;19.47;10.07;;;18.40;99.90;;;;;;4663685;30;20205;-78
2023/09/08 06:29:54;;;;;;;15.60;9.33;;;18.50;99.90;;;;;;4663965;30;20263;-78
2023/09/08 06:32:30;;;;;;;14.90;9.77;;;18.60;99.90;;;;;;4663693;30;20209;-77
2023/09/08 06:34:58;;;;;;;14.37;9.13;;;18.70;99.90;;;;;;4663005;30;20201;-79
2023/09/08 06:37:27;;;;;;;13.80;8.47;;;18.80;99.90;;;;;;4663658;30;20236;-77
2023/09/08 06:40:01;;;;;;;12.73;9.30;;;18.90;99.90;;;;;;4663631;30;20205;-80
2023/09/08 06:42:30;;;;;;;13.80;9.03;;;18.90;99.90;;;;;;4662891;30;20297;-78
2023/09/08 06:44:59;;;;;;;17.13;9.40;;;19.10;99.90;;;;;;4663574;30;20268;-77
2023/09/08 06:47:27;;;;;;;15.40;9.33;;;19.20;99.90;;;;;;4662956;30;20260;-79
2023/09/08 06:50:01;;;;;;;17.87;8.93;;;19.30;99.90;;;;;;4663649;30;20283;-78
2023/09/08 06:52:34;;;;;;;15.77;8.80;;;19.50;99.90;;;;;;4663245;30;20209;-78
2023/09/08 06:55:05;;;;;;;14.97;8.57;;;19.50;99.90;;;;;;4666671;30;20570;-76
2023/09/08 06:57:47;;;;;;;14.93;9.00;;;19.50;99.90;;;;;;4666538;30;20205;-79
2023/09/08 07:00:28;;;;;;;16.83;8.50;;;19.70;99.90;;;;;;4664169;30;20240;-79
2023/09/08 07:03:05;;;;;;;13.03;8.43;;;19.70;99.90;;;;;;4665511;30;20283;-80
2023/09/08 07:05:34;;;;;;;14.70;8.10;;;19.70;99.90;;;;;;4666402;30;20248;-78
2023/09/08 07:08:17;;;;;;;12.60;8.13;;;19.70;99.90;;;;;;4666357;30;20201;-81
2023/09/08 07:10:52;;;;;;;13.63;8.17;;;19.80;99.90;;;;;;4651746;30;20232;-80
2023/09/08 07:13:29;;;;;;;20.60;8.97;;;19.90;99.90;;;;;;4666530;30;20197;-82
2023/09/08 07:16:05;;;;;;;14.43;7.93;;;20.00;99.90;;;;;;4665114;30;20287;-84
2023/09/08 07:18:38;;;;;;;13.70;7.93;;;20.30;99.90;;;;;;4666569;30;20201;-81
2023/09/08 07:21:06;;;;;;;10.80;8.33;;;20.40;99.90;;;;;;4664592;30;20230;-80
2023/09/08 07:23:36;;;;;;;14.83;8.57;;;20.20;99.90;;;;;;4666142;30;20710;-81
2023/09/08 07:26:21;;;;;;;16.87;8.73;;;20.40;99.90;;;;;;4663377;30;20201;-80
2023/09/08 07:29:05;;;;;;;11.37;7.67;;;20.50;99.90;;;;;;4665664;30;20660;-82
2023/09/08 07:31:47;;;;;;;14.23;8.10;;;20.50;99.90;;;;;;4666604;30;20209;-81
2023/09/08 07:34:20;;;;;;;14.70;8.53;;;20.70;99.90;;;;;;4651433;30;20209;-80
2023/09/08 07:36:49;;;;;;;15.90;8.30;;;20.80;99.90;;;;;;4651127;30;20256;-83
2023/09/08 07:39:20;;;;;;;14.00;8.60;;;20.90;99.90;;;;;;4664899;30;20200;-82
2023/09/08 07:41:48;;;;;;;15.43;8.97;;;20.70;99.90;;;;;;4665435;30;20208;-81
2023/09/08 07:44:20;;;;;;;14.27;8.47;;;20.70;99.90;;;;;;4665318;30;20293;-82
2023/09/08 07:46:57;;;;;;;11.93;8.10;;;20.90;99.90;;;;;;4679110;30;20213;-82
2023/09/08 07:49:29;;;;;;;17.77;7.87;;;21.10;99.90;;;;;;4665302;30;20209;-81
2023/09/08 07:51:58;;;;;;;15.57;8.33;;;21.10;99.90;;;;;;4664153;30;20231;-83
2023/09/08 07:54:30;;;;;;;11.93;8.10;;;21.30;99.90;;;;;;4666033;30;20560;-80
2023/09/08 07:56:58;;;;;;;11.90;8.17;;;21.30;99.90;;;;;;4650436;30;20209;-81
2023/09/08 07:59:27;;;;;;;14.23;8.20;;;21.40;99.90;;;;;;4678628;30;20264;-82
2023/09/08 08:01:58;;;;;;;12.63;8.32;;;21.50;99.90;;;;;;4664493;30;20296;-81
2023/09/08 08:04:29;;;;;;;13.03;8.00;;;21.60;99.90;;;;;;4664626;30;20220;-82
2023/09/08 08:07:02;;;;;;;16.03;8.40;;;21.80;99.90;;;;;;4665679;30;20233;-82
2023/09/08 08:09:35;;;;;;;17.03;8.20;;;21.90;99.90;;;;;;4664573;30;20232;-82
2023/09/08 08:12:03;;;;;;;13.00;7.33;;;22.10;99.90;;;;;;4650098;30;20307;-81
2023/09/08 08:14:32;;;;;;;14.10;8.13;;;22.20;99.90;;;;;;4650582;30;20292;-81
2023/09/08 08:16:59;;;;;;;14.63;7.90;;;22.40;99.90;;;;;;4678361;30;20209;-81
2023/09/08 08:19:31;;;;;;;13.00;7.93;;;22.50;99.90;;;;;;4664785;30;20697;-80
2023/09/08 08:22:02;;;;;;;11.10;7.23;;;22.70;99.90;;;;;;4664112;30;20227;-81
2023/09/08 08:24:30;;;;;;;11.63;7.80;;;22.90;99.90;;;;;;4665200;30;20251;-80
2023/09/08 08:27:04;;;;;;;11.50;7.20;;;23.10;99.90;;;;;;4665606;30;20953;-82
2023/09/08 08:29:32;;;;;;;14.88;7.50;;;23.60;99.90;;;;;;4665555;30;20667;-81
2023/09/08 08:32:03;;;;;;;11.98;7.05;;;24.30;99.90;;;;;;4663638;30;20247;-82
2023/09/08 08:34:37;;;;;;;12.68;7.70;;;25.10;99.90;;;;;;4665085;30;20201;-90
2023/09/08 08:37:10;;;;;;;11.60;7.20;;;25.80;99.90;;;;;;4665072;30;20232;-78
2023/09/08 08:39:41;;;;;;;10.98;6.72;;;26.40;99.90;;;;;;4677608;30;20299;-80
2023/09/08 08:42:09;;;;;;;14.40;7.95;;;26.60;99.90;;;;;;4664915;30;20216;-80
2023/09/08 08:44:40;;;;;;;15.95;7.70;;;26.80;99.90;;;;;;4664606;30;20250;-81
2023/09/08 08:47:12;;;;;;;17.85;7.78;;;27.10;99.90;;;;;;4663782;30;20213;-82
2023/09/08 08:49:47;;;;;;;13.93;7.13;;;27.30;99.90;;;;;;4663784;30;20216;-80
2023/09/08 08:52:21;;;;;;;11.38;6.45;;;27.60;99.90;;;;;;4664342;30;20248;-81
2023/09/08 08:54:52;;;;;;;9.45;6.57;;;27.80;99.90;;;;;;4662507;30;20692;-82
2023/09/08 08:57:26;;;;;;;10.98;6.45;;;28.00;99.90;;;;;;4663936;30;20216;-85
2023/09/08 08:59:56;;;;;;;10.18;6.28;;;28.20;99.90;;;;;;4649665;30;20660;-80
2023/09/08 09:02:36;;;;;;;9.50;6.00;;;28.70;99.90;;;;;;4663583;30;20216;-81
2023/09/08 09:05:06;;;;;;;8.98;5.82;;;29.00;99.90;;;;;;4649119;30;20259;-79
2023/09/08 09:07:37;;;;;;;8.95;5.88;;;29.40;99.90;;;;;;4664231;30;20205;-79
2023/09/08 09:10:08;;;;;;;9.07;5.75;;;29.70;99.90;;;;;;4664382;30;20288;-81
2023/09/08 09:12:51;;;;;;;10.23;5.40;;;29.90;99.90;;;;;;4662691;30;20217;-81
2023/09/08 09:15:34;;;;;;;9.73;5.60;;;30.00;99.90;;;;;;4664233;30;20225;-86
2023/09/08 09:18:08;;;;;;;9.38;5.32;;;29.90;99.90;;;;;;4664653;30;20209;-83
2023/09/08 09:20:37;;;;;;;9.43;5.63;;;29.70;99.90;;;;;;4663658;30;20220;-83
2023/09/08 09:23:30;;;;;;;10.35;5.60;;;29.80;99.90;;;;;;4662397;30;21728;-82
2023/09/08 09:26:05;;;;;;;6.68;5.00;;;30.00;99.90;;;;;;4662842;30;20220;-83
2023/09/08 09:28:33;;;;;;;9.00;5.15;;;30.30;99.90;;;;;;4677815;30;20574;-80
2023/09/08 09:31:02;;;;;;;14.82;6.55;;;30.70;99.90;;;;;;4664398;30;20288;-81
2023/09/08 09:33:33;;;;;;;15.57;6.35;;;30.90;99.90;;;;;;4664332;30;20287;-81
2023/09/08 09:36:03;;;;;;;23.83;6.95;;;31.30;99.90;;;;;;4676773;30;20213;-80
2023/09/08 09:38:34;;;;;;;13.63;5.95;;;31.60;99.90;;;;;;4663047;30;20201;-80
2023/09/08 09:41:03;;;;;;;37.40;7.53;;;31.50;99.90;;;;;;4664408;30;20232;-81
2023/09/08 09:43:34;;;;;;;16.83;6.40;;;31.60;99.90;;;;;;4664429;30;20340;-82
2023/09/08 09:46:08;;;;;;;8.30;5.45;;;31.50;99.90;;;;;;4664567;30;20220;-83
2023/09/08 09:48:41;;;;;;;12.13;5.88;;;31.70;99.90;;;;;;4664499;30;20208;-81
2023/09/08 09:51:19;;;;;;;12.90;6.03;;;31.80;99.90;;;;;;4664641;30;20702;-82
2023/09/08 09:53:54;;;;;;;10.30;5.53;;;32.00;99.90;;;;;;4662297;30;20212;-82
2023/09/08 09:56:23;;;;;;;11.43;5.47;;;32.10;99.40;;;;;;4662866;30;20201;-81
2023/09/08 09:58:54;;;;;;;17.65;5.50;;;32.20;98.50;;;;;;4663638;30;20201;-82
2023/09/08 10:01:23;;;;;;;12.20;5.47;;;32.30;98.20;;;;;;4664040;30;20565;-82
2023/09/08 10:03:52;;;;;;;14.85;5.60;;;32.50;97.30;;;;;;4663488;30;20225;-83
2023/09/08 10:06:30;;;;;;;11.13;5.22;;;32.60;97.00;;;;;;4663476;30;20221;-83
2023/09/08 10:09:16;;;;;;;14.30;5.72;;;32.00;96.80;;;;;;4649965;30;20663;-85
2023/09/08 10:11:54;;;;;;;12.77;5.38;;;32.00;96.40;;;;;;4663666;30;20303;-83
2023/09/08 10:14:41;;;;;;;7.68;4.93;;;32.20;95.10;;;;;;4664882;30;20211;-83
2023/09/08 10:17:20;;;;;;;7.38;4.80;;;32.20;93.80;;;;;;4664345;30;20272;-81
2023/09/08 10:19:51;;;;;;;16.77;6.22;;;32.30;94.20;;;;;;4663093;30;20201;-81
2023/09/08 10:22:30;;;;;;;8.43;5.50;;;32.40;94.70;;;;;;4665613;30;20253;-83
2023/09/08 10:25:06;;;;;;;9.48;5.45;;;33.00;94.10;;;;;;4663916;30;20244;-86
2023/09/08 10:27:40;;;;;;;10.68;5.10;;;33.20;93.30;;;;;;4665023;30;20205;-82
2023/09/08 10:30:11;;;;;;;6.97;4.75;;;33.40;93.30;;;;;;4669892;30;20209;-80
2023/09/08 10:32:41;;;;;;;6.72;5.10;;;33.40;90.10;;;;;;4671059;30;20201;-80
2023/09/08 10:35:12;;;;;;;5.95;5.18;;;33.50;85.50;;;;;;4668408;30;20232;-81
2023/09/08 10:37:50;;;;;;;7.10;4.53;;;33.20;82.40;;;;;;4666895;30;20216;-82
2023/09/08 10:40:27;;;;;;;6.78;5.25;;;33.30;85.50;;;;;;4652286;30;20236;-83
2023/09/08 10:43:09;;;;;;;7.25;4.75;;;33.60;84.80;;;;;;4666379;30;20326;-82
2023/09/08 10:45:37;;;;;;;10.30;5.28;;;33.90;84.30;;;;;;4651843;30;20264;-82
2023/09/08 10:48:09;;;;;;;5.18;4.50;;;34.20;82.90;;;;;;4666976;30;20212;-82
2023/09/08 10:50:43;;;;;;;9.35;5.28;;;34.40;83.40;;;;;;4666538;30;20224;-81
2023/09/08 10:53:30;;;;;;;9.55;5.00;;;34.50;82.10;;;;;;4679491;30;20217;-82
2023/09/08 10:56:04;;;;;;;11.50;4.78;;;34.30;79.30;;;;;;4652292;30;20550;-82
2023/09/08 10:58:59;;;;;;;11.20;5.07;;;34.30;77.00;;;;;;4665109;30;20594;-82
2023/09/08 11:01:30;;;;;;;5.07;4.22;;;33.90;77.90;;;;;;4667050;30;20197;-82
2023/09/08 11:03:57;;;;;;;5.43;4.50;;;33.60;77.80;;;;;;4666612;30;20229;-80
2023/09/08 11:06:37;;;;;;;7.78;4.90;;;33.70;78.20;;;;;;4666109;30;20609;-81
2023/09/08 11:09:09;;;;;;;16.85;5.40;;;33.90;79.70;;;;;;4666730;30;20209;-81
2023/09/08 11:11:39;;;;;;;10.35;5.18;;;34.20;78.80;;;;;;4666585;30;20245;-84
2023/09/08 11:14:08;;;;;;;6.30;4.57;;;34.30;78.40;;;;;;4666678;30;20201;-83
2023/09/08 11:16:38;;;;;;;9.05;5.10;;;34.60;75.40;;;;;;4678902;30;20185;-82
2023/09/08 11:19:09;;;;;;;15.65;5.18;;;33.50;77.80;;;;;;4651532;30;20213;-83
2023/09/08 11:21:43;;;;;;;11.32;5.40;;;34.20;78.00;;;;;;4666196;30;20229;-80
2023/09/08 11:24:14;;;;;;;8.95;5.90;;;34.60;79.20;;;;;;4664817;30;20249;-79
2023/09/08 11:26:46;;;;;;;10.27;5.30;;;34.30;74.20;;;;;;4665988;30;20229;-82
2023/09/08 11:29:15;;;;;;;6.38;5.07;;;34.70;74.50;;;;;;4666407;30;20216;-82
2023/09/08 11:31:46;;;;;;;7.75;5.07;;;34.60;74.20;;;;;;4665063;30;20208;-82
2023/09/08 11:34:16;;;;;;;12.90;5.10;;;35.20;73.50;;;;;;4666009;30;20201;-82
2023/09/08 11:36:53;;;;;;;7.85;4.93;;;36.20;72.70;;;;;;4665973;30;20221;-80
2023/09/08 11:39:24;;;;;;;11.45;5.00;;;36.80;70.60;;;;;;4665057;30;20209;-80
2023/09/08 11:42:01;;;;;;;6.72;4.72;;;37.60;68.60;;;;;;4666209;30;20653;-79
2023/09/08 11:44:34;;;;;;;14.32;6.00;;;38.10;66.80;;;;;;4665986;30;20307;-79
2023/09/08 11:47:09;;;;;;;7.70;4.90;;;38.20;65.50;;;;;;4665649;30;20201;-79
2023/09/08 11:49:45;;;;;;;7.13;4.80;;;38.30;63.10;;;;;;4665761;30;20549;-82
2023/09/08 11:52:18;;;;;;;6.55;4.35;;;38.00;64.30;;;;;;4665676;30;20303;-79
2023/09/08 11:54:58;;;;;;;5.38;4.72;;;38.10;62.40;;;;;;4665503;30;20204;-81
2023/09/08 11:57:47;;;;;;;8.82;4.90;;;38.20;61.00;;;;;;4664281;30;20201;-80
2023/09/08 12:00:24;;;;;;;6.55;4.85;;;36.80;62.70;;;;;;4665697;30;20241;-82
2023/09/08 12:02:52;;;;;;;8.60;5.07;;;36.20;62.70;;;;;;4665532;30;20214;-81
2023/09/08 12:05:26;;;;;;;12.30;5.65;;;36.60;64.70;;;;;;4665081;30;20590;-81
2023/09/08 12:07:58;;;;;;;6.65;5.10;;;37.30;63.70;;;;;;4665448;30;20468;-81
2023/09/08 12:10:27;;;;;;;8.48;4.90;;;37.80;63.60;;;;;;4665022;30;20233;-82
2023/09/08 12:13:04;;;;;;;7.47;4.72;;;38.40;61.60;;;;;;4664099;30;20201;-83
2023/09/08 12:15:36;;;;;;;10.93;5.40;;;38.20;58.90;;;;;;4649335;30;20292;-83
2023/09/08 12:18:17;;;;;;;8.57;5.40;;;37.80;60.80;;;;;;4663877;30;20231;-81
2023/09/08 12:21:11;;;;;;;10.15;5.47;;;37.70;59.50;;;;;;4663687;30;20653;-81
2023/09/08 12:23:50;;;;;;;7.05;4.72;;;37.30;59.90;;;;;;4663800;30;20244;-81
2023/09/08 12:26:24;;;;;;;8.50;4.80;;;37.30;60.00;;;;;;4664849;30;20232;-80
2023/09/08 12:29:03;;;;;;;9.18;5.45;;;36.60;60.10;;;;;;4663221;30;20228;-89
2023/09/08 12:31:43;;;;;;;7.20;5.45;;;36.50;61.50;;;;;;4665088;30;20201;-82
2023/09/08 12:34:12;;;;;;;7.00;5.57;;;36.20;61.40;;;;;;4664381;30;20210;-82
2023/09/08 12:36:46;;;;;;;12.95;6.22;;;36.10;62.80;;;;;;4665030;30;20260;-81
2023/09/08 12:39:18;;;;;;;8.38;5.80;;;36.30;63.40;;;;;;4663593;30;20201;-82
2023/09/08 12:41:50;;;;;;;10.93;5.63;;;36.60;61.60;;;;;;4662693;30;20209;-81
2023/09/08 12:44:25;;;;;;;10.13;5.35;;;36.70;61.80;;;;;;4662663;30;20582;-82
2023/09/08 12:46:53;;;;;;;8.20;5.03;;;37.00;61.30;;;;;;4664022;30;20205;-81
2023/09/08 12:49:28;;;;;;;6.78;5.30;;;37.00;61.00;;;;;;4663106;30;20662;-80
2023/09/08 12:51:59;;;;;;;8.35;5.65;;;37.10;60.40;;;;;;4663197;30;20662;-82
2023/09/08 12:54:52;;;;;;;10.00;5.32;;;37.10;58.80;;;;;;4662305;30;20685;-80
2023/09/08 12:58:02;;;;;;;6.20;5.45;;;36.30;60.30;;;;;;4663061;30;20213;-84
2023/09/08 13:01:37;;;;;;;7.72;5.55;;;35.70;60.70;;;;;;4590852;31;20628;-83
2023/09/08 13:05:05;;;;;;;;;;;;;;;;;;;;;